Time;durP1;ratioP1;P1;durP2;ratioP2;P2;SDS_P1;SDS_P2;PMS_P1;PMS_P2;Temp;Humidity;BMP_temperature;BMP_pressure;BME280_temperature;BME280_humidity;BME280_pressure;Samples;Min_cycle;Max_cycle;Signal;HPM_P1;HPM_P2
2022/07/28 00:00:26;;;;;;;14.27;12.88;;;26.60;72.80;;;;;;4996510;28;20148;-82
2022/07/28 00:02:52;;;;;;;13.15;11.55;;;26.60;72.90;;;;;;4984457;28;20042;-83
2022/07/28 00:05:18;;;;;;;14.02;12.73;;;26.50;73.00;;;;;;4997274;28;20038;-82
2022/07/28 00:07:44;;;;;;;13.57;12.18;;;26.50;73.00;;;;;;4995946;28;20393;-82
2022/07/28 00:10:11;;;;;;;13.68;12.40;;;26.50;73.10;;;;;;4993613;28;20034;-82
2022/07/28 00:12:37;;;;;;;13.82;12.40;;;26.40;73.00;;;;;;4995997;28;20414;-82
2022/07/28 00:15:04;;;;;;;13.43;12.20;;;26.50;73.20;;;;;;4996620;28;20081;-82
2022/07/28 00:17:30;;;;;;;13.38;11.98;;;26.40;73.20;;;;;;4994586;28;20041;-82
2022/07/28 00:19:56;;;;;;;13.80;12.52;;;26.40;73.10;;;;;;5010773;28;20031;-82
2022/07/28 00:22:22;;;;;;;13.50;12.18;;;26.40;73.20;;;;;;4995402;28;20084;-82
2022/07/28 00:24:49;;;;;;;14.65;12.95;;;26.30;73.30;;;;;;4995830;28;20685;-82
2022/07/28 00:27:16;;;;;;;14.10;12.70;;;26.30;73.30;;;;;;4995863;28;20045;-82
2022/07/28 00:29:43;;;;;;;13.77;12.55;;;26.20;73.50;;;;;;4997284;28;20046;-83
2022/07/28 00:32:09;;;;;;;15.25;13.35;;;26.20;73.40;;;;;;4995868;28;20040;-83
2022/07/28 00:34:34;;;;;;;15.20;13.77;;;26.20;73.40;;;;;;4995187;28;20034;-83
2022/07/28 00:37:01;;;;;;;14.27;12.88;;;26.10;73.40;;;;;;4996508;28;20030;-82
2022/07/28 00:39:26;;;;;;;14.20;12.82;;;26.10;73.60;;;;;;4995885;28;20058;-82
2022/07/28 00:41:52;;;;;;;14.25;12.15;;;26.20;73.80;;;;;;4997131;28;20505;-82
2022/07/28 00:44:18;;;;;;;15.48;12.00;;;26.20;73.60;;;;;;4995756;28;20026;-82
2022/07/28 00:46:44;;;;;;;15.25;13.75;;;26.20;73.50;;;;;;4994743;28;20046;-82
2022/07/28 00:49:13;;;;;;;14.63;13.23;;;26.20;73.60;;;;;;4994964;28;20030;-82
2022/07/28 00:51:39;;;;;;;14.30;12.55;;;26.20;73.60;;;;;;4992555;28;20042;-83
2022/07/28 00:54:06;;;;;;;15.57;13.93;;;26.20;73.70;;;;;;4994958;28;20062;-82
2022/07/28 00:56:33;;;;;;;15.95;13.05;;;26.20;73.60;;;;;;4993679;28;20034;-83
2022/07/28 00:58:59;;;;;;;13.82;12.50;;;26.20;73.70;;;;;;4995324;28;20041;-82
2022/07/28 01:01:25;;;;;;;14.75;13.25;;;26.20;73.60;;;;;;4995074;28;20057;-83
2022/07/28 01:03:54;;;;;;;13.63;12.25;;;26.20;73.80;;;;;;4996375;28;20046;-82
2022/07/28 01:06:39;;;;;;;14.25;12.80;;;26.30;73.70;;;;;;5010145;28;20038;-83
2022/07/28 01:09:38;;;;;;;15.55;13.85;;;26.30;73.90;;;;;;4994083;28;20537;-82
2022/07/28 01:12:11;;;;;;;14.73;12.85;;;26.30;73.60;;;;;;5009177;28;20031;-82
2022/07/28 01:15:02;;;;;;;15.63;14.10;;;26.30;73.60;;;;;;5013666;28;20533;-82
2022/07/28 01:17:38;;;;;;;15.02;13.50;;;26.40;73.30;;;;;;4999521;28;20048;-82
2022/07/28 01:20:28;;;;;;;15.38;13.77;;;26.40;73.60;;;;;;4998565;28;20034;-82
2022/07/28 01:23:32;;;;;;;14.15;12.75;;;26.40;73.80;;;;;;4999593;28;20074;-82
2022/07/28 01:26:27;;;;;;;16.10;14.43;;;26.40;73.70;;;;;;5000619;28;20069;-82
2022/07/28 01:28:56;;;;;;;15.50;13.30;;;26.40;73.40;;;;;;5018238;28;20034;-82
2022/07/28 01:31:25;;;;;;;14.90;13.50;;;26.40;73.60;;;;;;5020342;28;20458;-82
2022/07/28 01:33:57;;;;;;;15.52;13.93;;;26.40;73.60;;;;;;5017897;28;20030;-82
2022/07/28 01:36:32;;;;;;;15.65;14.15;;;26.40;73.60;;;;;;5017428;28;21314;-82
2022/07/28 01:38:59;;;;;;;15.30;13.90;;;26.40;73.60;;;;;;5017705;28;20030;-82
2022/07/28 01:41:28;;;;;;;15.82;14.23;;;26.40;73.50;;;;;;5016924;28;20029;-82
2022/07/28 01:44:01;;;;;;;15.50;14.00;;;26.40;73.40;;;;;;5017151;28;20029;-83
2022/07/28 01:46:28;;;;;;;16.60;14.90;;;26.50;73.40;;;;;;5032739;28;20120;-82
2022/07/28 01:48:56;;;;;;;18.02;16.23;;;26.50;73.30;;;;;;5018301;28;20508;-82
2022/07/28 01:51:25;;;;;;;16.95;15.25;;;26.40;73.20;;;;;;5019036;28;20072;-83
2022/07/28 01:53:55;;;;;;;16.85;15.25;;;26.40;73.30;;;;;;5015714;28;20033;-82
2022/07/28 01:56:23;;;;;;;17.90;15.25;;;26.40;73.30;;;;;;5018566;28;20033;-82
2022/07/28 01:58:51;;;;;;;16.80;14.95;;;26.40;73.50;;;;;;5017619;28;20132;-82
2022/07/28 02:01:19;;;;;;;17.27;15.57;;;26.40;73.60;;;;;;5020311;28;20037;-83
2022/07/28 02:03:46;;;;;;;16.23;14.55;;;26.40;73.70;;;;;;5015905;28;20069;-83
2022/07/28 02:06:14;;;;;;;16.33;14.50;;;26.40;73.80;;;;;;5017211;28;20052;-83
2022/07/28 02:08:41;;;;;;;16.23;14.68;;;26.40;73.90;;;;;;5017391;28;20045;-82
2022/07/28 02:13:53;;;;;;;18.08;16.17;;;26.30;73.70;;;;;;5017270;28;20116;-82
2022/07/28 02:16:21;;;;;;;16.85;15.20;;;26.30;73.80;;;;;;5017607;28;20566;-83
2022/07/28 02:18:50;;;;;;;17.13;15.23;;;26.30;73.90;;;;;;5017181;28;20120;-83
2022/07/28 02:21:18;;;;;;;15.73;14.13;;;26.40;74.00;;;;;;5032402;28;20533;-82
2022/07/28 02:23:47;;;;;;;15.90;14.27;;;26.40;74.00;;;;;;5016012;28;20045;-82
2022/07/28 02:26:16;;;;;;;16.35;14.48;;;26.40;74.30;;;;;;5018606;28;20034;-83
2022/07/28 02:28:45;;;;;;;17.00;14.80;;;26.50;74.20;;;;;;5015385;28;20033;-82
2022/07/28 02:31:40;;;;;;;16.27;14.32;;;26.50;74.10;;;;;;5016542;28;20065;-83
2022/07/28 02:34:07;;;;;;;16.48;14.73;;;26.60;74.10;;;;;;5016887;28;20076;-83
2022/07/28 02:36:49;;;;;;;18.52;16.48;;;26.70;74.10;;;;;;5016142;28;20038;-83
2022/07/28 02:39:21;;;;;;;19.83;16.65;;;26.70;73.80;;;;;;5015440;28;20592;-82
2022/07/28 02:41:54;;;;;;;19.40;16.77;;;26.70;73.30;;;;;;5015913;28;20065;-83
2022/07/28 02:44:26;;;;;;;20.27;17.67;;;26.80;73.40;;;;;;5032797;28;20032;-83
2022/07/28 02:46:54;;;;;;;19.77;17.67;;;26.80;73.00;;;;;;5031869;28;20070;-83
2022/07/28 02:49:29;;;;;;;22.83;18.58;;;26.80;72.80;;;;;;5015647;28;20037;-83
2022/07/28 02:51:57;;;;;;;22.77;18.20;;;26.90;72.80;;;;;;5016166;28;20037;-83
2022/07/28 02:54:26;;;;;;;23.70;18.85;;;26.90;72.90;;;;;;5016230;28;20046;-83
2022/07/28 02:56:53;;;;;;;20.73;18.08;;;27.00;72.80;;;;;;5016201;28;20080;-83
2022/07/28 02:59:20;;;;;;;19.88;17.75;;;27.00;72.50;;;;;;5020104;28;20033;-83
2022/07/28 03:01:48;;;;;;;22.25;17.65;;;27.10;72.60;;;;;;5015709;28;20039;-83
2022/07/28 03:04:14;;;;;;;20.52;17.92;;;27.10;73.50;;;;;;5017870;28;20587;-83
2022/07/28 03:06:41;;;;;;;19.83;17.73;;;27.10;73.80;;;;;;5014685;28;20041;-83
2022/07/28 03:09:10;;;;;;;20.15;18.00;;;27.10;74.00;;;;;;5015310;28;20536;-83
2022/07/28 03:11:50;;;;;;;18.98;17.17;;;27.10;74.30;;;;;;5030901;28;20053;-83
2022/07/28 03:14:16;;;;;;;22.63;20.15;;;27.10;73.60;;;;;;4998142;28;20041;-83
2022/07/28 03:16:43;;;;;;;22.42;19.35;;;27.00;73.00;;;;;;5015630;28;20045;-83
2022/07/28 03:19:10;;;;;;;19.80;17.77;;;26.90;73.70;;;;;;5014920;28;20522;-83
2022/07/28 03:21:37;;;;;;;23.35;19.48;;;27.00;73.30;;;;;;5016674;28;20117;-82
2022/07/28 03:24:04;;;;;;;20.35;17.83;;;27.00;73.70;;;;;;5017881;28;20683;-81
2022/07/28 03:26:40;;;;;;;22.77;18.40;;;27.00;73.90;;;;;;5016578;28;20504;-82
2022/07/28 03:29:07;;;;;;;21.77;18.83;;;27.10;74.20;;;;;;5014241;28;20113;-82
2022/07/28 03:31:35;;;;;;;21.45;18.83;;;27.00;74.50;;;;;;4998654;28;20041;-83
2022/07/28 03:34:03;;;;;;;23.25;19.70;;;27.00;74.30;;;;;;5030822;28;20412;-82
2022/07/28 03:36:38;;;;;;;21.27;18.63;;;27.10;74.20;;;;;;5030968;28;20837;-83
2022/07/28 03:39:10;;;;;;;21.50;19.23;;;27.10;74.30;;;;;;5018252;28;20424;-83
2022/07/28 03:41:37;;;;;;;21.52;18.85;;;27.10;74.30;;;;;;5003111;28;20037;-83
2022/07/28 03:44:04;;;;;;;20.88;18.38;;;27.10;74.30;;;;;;5016229;28;20040;-83
2022/07/28 03:46:31;;;;;;;19.88;17.75;;;27.10;74.50;;;;;;5016329;28;20029;-83
2022/07/28 03:48:57;;;;;;;20.52;18.05;;;27.10;74.30;;;;;;5001434;28;20030;-83
2022/07/28 03:51:24;;;;;;;21.35;18.52;;;27.10;74.50;;;;;;5016352;28;20804;-83
2022/07/28 03:53:50;;;;;;;24.27;19.45;;;27.20;74.40;;;;;;4997501;28;20163;-83
2022/07/28 03:56:16;;;;;;;22.73;19.38;;;27.30;73.50;;;;;;5020023;28;20133;-84
2022/07/28 03:58:42;;;;;;;22.83;18.85;;;27.40;73.10;;;;;;5016434;28;20500;-83
2022/07/28 04:01:08;;;;;;;23.58;18.60;;;27.50;72.90;;;;;;4998125;28;20056;-84
2022/07/28 04:03:34;;;;;;;20.48;18.27;;;27.60;72.50;;;;;;5031222;28;20049;-85
2022/07/28 04:06:00;;;;;;;21.23;18.17;;;27.70;72.20;;;;;;5015705;28;20319;-84
2022/07/28 04:08:26;;;;;;;21.08;18.42;;;27.80;72.00;;;;;;5014535;28;20251;-84
2022/07/28 04:10:52;;;;;;;19.83;17.73;;;27.90;71.70;;;;;;5015979;28;20251;-84
2022/07/28 04:13:19;;;;;;;24.02;17.85;;;27.90;71.70;;;;;;5014062;28;20130;-84
2022/07/28 04:15:45;;;;;;;21.50;17.35;;;28.00;71.90;;;;;;5015479;28;20026;-84
2022/07/28 04:18:11;;;;;;;19.00;17.10;;;28.00;71.80;;;;;;4997619;28;20084;-84
2022/07/28 04:20:37;;;;;;;20.13;16.98;;;28.00;72.00;;;;;;5013443;28;20451;-84
2022/07/28 04:23:03;;;;;;;19.92;17.58;;;28.00;71.80;;;;;;5000130;28;20038;-84
2022/07/28 04:25:29;;;;;;;19.58;17.55;;;28.00;71.70;;;;;;5013689;28;20797;-84
2022/07/28 04:27:55;;;;;;;21.35;18.00;;;28.00;71.70;;;;;;5016565;28;20036;-84
2022/07/28 04:30:23;;;;;;;23.10;18.65;;;28.10;71.80;;;;;;5015009;28;20385;-84
2022/07/28 04:32:51;;;;;;;23.25;17.77;;;28.20;71.80;;;;;;4985330;28;20029;-84
2022/07/28 04:35:18;;;;;;;20.45;17.83;;;28.20;71.80;;;;;;5001485;28;20045;-85
2022/07/28 04:37:45;;;;;;;20.63;18.38;;;28.30;71.20;;;;;;5014106;28;20531;-84
2022/07/28 04:40:12;;;;;;;22.48;18.05;;;28.40;71.40;;;;;;5015564;28;20037;-85
2022/07/28 04:42:38;;;;;;;19.52;17.48;;;28.50;71.40;;;;;;5020341;28;20061;-84
2022/07/28 04:45:10;;;;;;;18.95;16.58;;;28.60;71.20;;;;;;5014054;28;20467;-84
2022/07/28 04:47:36;;;;;;;21.95;17.15;;;28.60;71.50;;;;;;5014766;28;20030;-84
2022/07/28 04:50:04;;;;;;;18.48;16.50;;;28.60;71.60;;;;;;5015252;28;20064;-84
2022/07/28 04:52:30;;;;;;;19.35;16.90;;;28.60;71.40;;;;;;5014547;28;20489;-84
2022/07/28 04:54:55;;;;;;;20.65;17.48;;;28.60;71.60;;;;;;4997782;28;20116;-84
2022/07/28 04:57:21;;;;;;;18.55;16.55;;;28.50;71.50;;;;;;5013001;28;20054;-85
2022/07/28 04:59:47;;;;;;;23.45;16.83;;;28.60;71.30;;;;;;5013335;28;20038;-84
2022/07/28 05:02:13;;;;;;;19.55;15.55;;;28.70;71.30;;;;;;5014323;28;20508;-84
2022/07/28 05:04:39;;;;;;;20.70;15.75;;;28.70;71.20;;;;;;5014050;28;20065;-85
2022/07/28 05:07:05;;;;;;;17.30;15.48;;;28.80;71.00;;;;;;5015447;28;20041;-85
2022/07/28 05:09:31;;;;;;;18.52;15.38;;;28.90;70.90;;;;;;5014993;28;20036;-84
2022/07/28 05:11:57;;;;;;;18.30;15.80;;;28.90;70.90;;;;;;5013567;28;20084;-85
2022/07/28 05:14:24;;;;;;;17.42;15.60;;;29.00;70.70;;;;;;5014500;28;20082;-84
2022/07/28 05:16:50;;;;;;;16.98;15.25;;;29.00;71.20;;;;;;5014594;28;20061;-84
2022/07/28 05:19:16;;;;;;;16.67;14.95;;;29.10;70.60;;;;;;5028675;28;20069;-84
2022/07/28 05:21:42;;;;;;;18.52;15.65;;;29.10;70.50;;;;;;5013756;28;20516;-85
2022/07/28 05:24:09;;;;;;;17.25;14.88;;;29.20;70.50;;;;;;5018517;28;20044;-83
2022/07/28 05:26:35;;;;;;;19.42;15.57;;;29.20;70.40;;;;;;5012859;28;20137;-84
2022/07/28 05:29:01;;;;;;;19.05;15.05;;;29.30;70.40;;;;;;5014872;28;20468;-84
2022/07/28 05:31:27;;;;;;;17.55;15.38;;;29.30;70.30;;;;;;5013410;28;20037;-84
2022/07/28 05:33:53;;;;;;;20.52;15.25;;;29.30;70.10;;;;;;4989581;28;20037;-84
2022/07/28 05:36:18;;;;;;;17.05;14.73;;;29.40;70.10;;;;;;4996768;28;20026;-85
2022/07/28 05:38:44;;;;;;;18.30;14.88;;;29.40;70.00;;;;;;4996304;28;20034;-84
2022/07/28 05:41:10;;;;;;;16.63;14.35;;;29.50;70.00;;;;;;4989856;28;20389;-84
2022/07/28 05:43:37;;;;;;;18.23;15.02;;;29.50;70.40;;;;;;5012661;28;20038;-84
2022/07/28 05:46:04;;;;;;;17.35;14.93;;;29.60;69.70;;;;;;5014152;28;20164;-84
2022/07/28 05:48:30;;;;;;;18.38;14.80;;;29.60;69.30;;;;;;5029891;28;20061;-84
2022/07/28 05:50:56;;;;;;;18.20;14.35;;;29.60;68.80;;;;;;5013688;28;20057;-84
2022/07/28 05:53:23;;;;;;;19.27;14.43;;;29.70;69.00;;;;;;5031199;28;20029;-83
2022/07/28 05:55:49;;;;;;;14.85;13.25;;;29.70;68.90;;;;;;5019262;28;20038;-84
2022/07/28 05:58:19;;;;;;;18.73;13.60;;;29.80;68.40;;;;;;5037214;28;20045;-84
2022/07/28 06:00:45;;;;;;;17.75;13.57;;;29.80;68.40;;;;;;5021180;28;20070;-84
2022/07/28 06:03:11;;;;;;;18.10;13.30;;;29.80;67.60;;;;;;5023605;28;20543;-84
2022/07/28 06:05:37;;;;;;;17.10;13.68;;;29.90;67.60;;;;;;5023013;28;20405;-84
2022/07/28 06:08:03;;;;;;;18.33;13.35;;;30.00;67.20;;;;;;5017913;28;20056;-84
2022/07/28 06:13:15;;;;;;;15.80;12.93;;;30.00;67.40;;;;;;5018260;28;20125;-83
2022/07/28 06:15:41;;;;;;;17.17;13.52;;;30.00;67.60;;;;;;5033313;28;20033;-84
2022/07/28 06:18:07;;;;;;;15.60;13.18;;;30.10;67.70;;;;;;5017010;28;20118;-84
2022/07/28 06:20:34;;;;;;;16.58;12.70;;;30.20;67.60;;;;;;4999758;28;20066;-84
2022/07/28 06:23:00;;;;;;;15.30;13.32;;;30.20;67.60;;;;;;5016936;28;20049;-84
2022/07/28 06:25:27;;;;;;;14.35;11.93;;;30.20;67.60;;;;;;5018295;28;20053;-85
2022/07/28 06:27:56;;;;;;;15.63;12.60;;;30.20;67.60;;;;;;4998665;28;20501;-84
2022/07/28 06:30:22;;;;;;;16.20;12.10;;;30.30;67.70;;;;;;4957685;28;20149;-85
2022/07/28 06:32:49;;;;;;;15.25;12.48;;;30.30;67.70;;;;;;4996835;28;20037;-85
2022/07/28 06:35:16;;;;;;;16.33;12.32;;;30.30;67.70;;;;;;4996759;28;20026;-84
2022/07/28 06:37:43;;;;;;;13.88;12.00;;;30.30;67.70;;;;;;5012912;28;20034;-85
2022/07/28 06:40:12;;;;;;;14.15;11.98;;;30.30;67.70;;;;;;4996583;28;20026;-84
2022/07/28 06:42:39;;;;;;;15.80;11.55;;;30.40;67.60;;;;;;4963265;28;20027;-84
2022/07/28 06:45:09;;;;;;;13.25;11.43;;;30.40;66.60;;;;;;4995374;28;20220;-84
2022/07/28 06:47:35;;;;;;;14.73;11.60;;;30.40;66.30;;;;;;5013130;28;20078;-84
2022/07/28 06:50:02;;;;;;;12.70;11.38;;;30.40;66.50;;;;;;4997864;28;20041;-84
2022/07/28 06:52:28;;;;;;;12.93;11.38;;;30.40;66.60;;;;;;4995945;28;20362;-85
2022/07/28 06:54:54;;;;;;;15.25;11.02;;;30.40;66.60;;;;;;4997862;28;20256;-85
2022/07/28 06:57:21;;;;;;;13.13;11.00;;;30.30;66.70;;;;;;4980338;28;20489;-85
2022/07/28 06:59:50;;;;;;;11.95;10.75;;;30.30;66.80;;;;;;4996166;28;20054;-85
2022/07/28 07:02:16;;;;;;;12.02;10.73;;;30.30;66.90;;;;;;4997130;28;20517;-84
2022/07/28 07:04:43;;;;;;;12.55;10.93;;;30.40;67.00;;;;;;4980433;28;20045;-85
2022/07/28 07:07:09;;;;;;;12.90;10.55;;;30.30;67.40;;;;;;4972023;28;20109;-85
2022/07/28 07:09:36;;;;;;;12.02;10.80;;;30.30;66.80;;;;;;4995217;28;20039;-85
2022/07/28 07:12:02;;;;;;;11.57;10.25;;;30.30;66.90;;;;;;4995878;28;20034;-84
2022/07/28 07:14:29;;;;;;;12.07;10.77;;;30.20;67.00;;;;;;4978442;28;20030;-85
2022/07/28 07:16:54;;;;;;;14.30;10.55;;;30.20;67.20;;;;;;4996777;28;20485;-84
2022/07/28 07:19:20;;;;;;;15.02;10.63;;;30.20;67.20;;;;;;4995745;28;20034;-84
2022/07/28 07:21:47;;;;;;;14.63;10.48;;;30.10;67.30;;;;;;4996274;28;20041;-84
2022/07/28 07:24:13;;;;;;;15.27;10.20;;;30.10;67.30;;;;;;4995964;28;20037;-85
2022/07/28 07:26:39;;;;;;;13.27;10.68;;;30.10;67.40;;;;;;4996179;28;20049;-85
2022/07/28 07:29:06;;;;;;;11.18;9.68;;;30.20;67.50;;;;;;4994599;28;20489;-84
2022/07/28 07:31:33;;;;;;;11.35;10.07;;;30.20;67.50;;;;;;4996059;28;20093;-85
2022/07/28 07:33:59;;;;;;;11.82;10.30;;;30.10;67.50;;;;;;4983699;28;20038;-84
2022/07/28 07:36:25;;;;;;;12.82;10.57;;;30.10;67.50;;;;;;4978545;28;20092;-84
2022/07/28 07:38:51;;;;;;;12.80;10.60;;;30.20;67.40;;;;;;5012282;28;20093;-84
2022/07/28 07:41:17;;;;;;;12.25;10.45;;;30.10;67.50;;;;;;4994752;28;20520;-84
2022/07/28 07:43:44;;;;;;;12.45;10.68;;;30.10;67.60;;;;;;4979260;28;20089;-85
2022/07/28 07:46:10;;;;;;;12.43;11.13;;;30.10;67.50;;;;;;4996453;28;20038;-85
2022/07/28 07:48:36;;;;;;;15.90;11.18;;;30.20;67.00;;;;;;4995201;28;20104;-85
2022/07/28 07:51:03;;;;;;;14.35;10.48;;;30.10;66.90;;;;;;4979255;28;20030;-84
2022/07/28 07:53:28;;;;;;;12.32;10.52;;;30.10;66.60;;;;;;5012487;28;20058;-85
2022/07/28 07:55:54;;;;;;;14.40;10.63;;;30.10;66.60;;;;;;4979538;28;20665;-84
2022/07/28 07:58:20;;;;;;;17.42;11.07;;;30.00;66.30;;;;;;4983836;28;20040;-85
2022/07/28 08:00:46;;;;;;;13.98;10.45;;;30.00;66.40;;;;;;4996126;28;20042;-84
2022/07/28 08:03:15;;;;;;;14.63;11.10;;;30.00;66.50;;;;;;5011038;28;20096;-84
2022/07/28 08:05:42;;;;;;;15.35;11.15;;;30.00;66.50;;;;;;4984826;28;20051;-84
2022/07/28 08:08:08;;;;;;;13.15;11.00;;;30.00;66.50;;;;;;5011673;28;20089;-84
2022/07/28 08:10:35;;;;;;;12.35;10.77;;;30.00;66.60;;;;;;4979215;28;20177;-84
2022/07/28 08:13:03;;;;;;;11.88;10.10;;;29.90;66.50;;;;;;4994611;28;20570;-85
2022/07/28 08:15:29;;;;;;;15.63;10.63;;;29.90;66.60;;;;;;4983450;28;20263;-84
2022/07/28 08:17:56;;;;;;;12.80;10.27;;;30.00;66.70;;;;;;4979699;28;20034;-84
2022/07/28 08:20:22;;;;;;;11.73;10.63;;;30.00;66.80;;;;;;4994605;28;20409;-84
2022/07/28 08:22:48;;;;;;;15.30;10.88;;;30.00;66.60;;;;;;5011680;28;20085;-84
2022/07/28 08:25:15;;;;;;;14.35;10.20;;;30.00;66.40;;;;;;4994668;28;20481;-84
2022/07/28 08:27:40;;;;;;;11.93;10.18;;;30.00;66.00;;;;;;4978344;28;20034;-84
2022/07/28 08:30:07;;;;;;;11.43;10.32;;;29.90;65.60;;;;;;4978647;28;20033;-84
2022/07/28 08:32:33;;;;;;;12.25;11.05;;;30.00;65.40;;;;;;4996193;28;20473;-84
2022/07/28 08:34:59;;;;;;;12.43;10.02;;;30.00;65.30;;;;;;4971351;28;20036;-84
2022/07/28 08:37:25;;;;;;;11.43;10.23;;;29.90;65.10;;;;;;5012240;28;20049;-84
2022/07/28 08:39:51;;;;;;;11.65;10.32;;;29.90;65.00;;;;;;4997082;28;20041;-85
2022/07/28 08:42:24;;;;;;;11.40;9.50;;;29.90;64.90;;;;;;4994139;28;20076;-84
2022/07/28 08:44:53;;;;;;;10.48;9.27;;;29.90;65.00;;;;;;4984691;28;20042;-84
2022/07/28 08:47:20;;;;;;;11.27;10.00;;;29.90;64.80;;;;;;4976246;28;20038;-84
2022/07/28 08:49:48;;;;;;;11.18;10.02;;;29.90;64.80;;;;;;4997004;28;20033;-84
2022/07/28 08:52:14;;;;;;;12.88;10.23;;;29.90;64.60;;;;;;5014531;28;20050;-84
2022/07/28 08:54:44;;;;;;;10.45;9.50;;;29.90;64.50;;;;;;4996638;28;20034;-84
2022/07/28 08:57:17;;;;;;;11.15;10.05;;;29.90;64.60;;;;;;5014598;28;20034;-85
2022/07/28 08:59:45;;;;;;;10.00;9.10;;;29.90;64.70;;;;;;5003301;28;20033;-84
2022/07/28 09:02:12;;;;;;;10.20;9.20;;;29.90;64.80;;;;;;5014623;28;20389;-85
2022/07/28 09:04:39;;;;;;;10.45;9.30;;;29.90;65.00;;;;;;5013704;28;20046;-84
2022/07/28 09:07:05;;;;;;;10.38;9.32;;;29.90;65.00;;;;;;5029757;28;20041;-85
2022/07/28 09:09:31;;;;;;;10.70;9.70;;;29.80;65.00;;;;;;5012943;28;20068;-84
2022/07/28 09:12:00;;;;;;;11.05;9.95;;;29.80;65.00;;;;;;5013417;28;20037;-84
2022/07/28 09:14:26;;;;;;;10.18;9.00;;;29.80;65.00;;;;;;5013967;28;20505;-84
2022/07/28 09:16:52;;;;;;;9.85;8.85;;;29.80;64.90;;;;;;5030235;28;20071;-84
2022/07/28 09:19:18;;;;;;;9.93;9.00;;;29.80;64.80;;;;;;4996612;28;20084;-83
2022/07/28 09:21:44;;;;;;;10.55;9.55;;;29.80;64.80;;;;;;5014015;28;20030;-83
2022/07/28 09:24:40;;;;;;;10.93;9.82;;;29.80;64.90;;;;;;5013301;28;20041;-83
2022/07/28 09:27:12;;;;;;;10.20;9.20;;;29.70;64.80;;;;;;4997089;28;20037;-83
2022/07/28 09:29:40;;;;;;;12.15;9.57;;;29.70;65.10;;;;;;5029417;28;20034;-85
2022/07/28 09:32:07;;;;;;;11.40;8.50;;;29.70;65.10;;;;;;5016017;28;20140;-84
2022/07/28 09:34:40;;;;;;;11.90;8.50;;;29.60;68.00;;;;;;5015997;28;20535;-84
2022/07/28 09:37:20;;;;;;;11.38;8.13;;;29.50;69.80;;;;;;5017258;28;20045;-84
2022/07/28 09:39:48;;;;;;;11.13;7.43;;;29.40;71.80;;;;;;5016979;28;20091;-84
2022/07/28 09:42:17;;;;;;;8.10;6.10;;;29.30;72.30;;;;;;5018040;28;20054;-82
2022/07/28 09:44:43;;;;;;;6.25;5.65;;;29.20;71.10;;;;;;5019171;28;20508;-81
2022/07/28 09:47:24;;;;;;;7.03;5.72;;;29.10;71.20;;;;;;5017118;28;20042;-82
2022/07/28 09:49:50;;;;;;;6.20;5.38;;;29.10;71.00;;;;;;5016640;28;20113;-82
2022/07/28 09:52:37;;;;;;;5.72;4.93;;;29.10;71.00;;;;;;5016169;28;20161;-81
2022/07/28 09:55:05;;;;;;;4.63;4.07;;;29.10;69.20;;;;;;5000981;28;20040;-83
2022/07/28 09:57:33;;;;;;;6.47;4.80;;;29.10;69.20;;;;;;5033320;28;20030;-83
2022/07/28 09:59:59;;;;;;;5.80;5.20;;;29.10;69.10;;;;;;5017185;28;20041;-83
2022/07/28 10:02:30;;;;;;;5.72;5.20;;;29.10;69.40;;;;;;5017672;28;20034;-83
2022/07/28 10:04:59;;;;;;;5.55;4.95;;;29.10;69.70;;;;;;5016338;28;20468;-83
2022/07/28 10:07:28;;;;;;;5.20;4.70;;;29.10;69.90;;;;;;5006886;28;20401;-83
2022/07/28 10:10:08;;;;;;;5.90;5.30;;;29.10;69.90;;;;;;5015638;28;20412;-83
2022/07/28 10:12:35;;;;;;;6.32;5.28;;;29.10;70.40;;;;;;5016843;28;20072;-83
2022/07/28 10:18:00;;;;;;;8.98;5.90;;;29.10;70.40;;;;;;5017181;28;20038;-83
2022/07/28 10:20:27;;;;;;;7.03;5.68;;;29.10;70.40;;;;;;5016929;28;20040;-84
2022/07/28 10:23:00;;;;;;;7.15;5.38;;;29.10;70.40;;;;;;5001135;28;20072;-83
2022/07/28 10:25:28;;;;;;;6.28;5.65;;;29.10;70.80;;;;;;4976855;28;20413;-84
2022/07/28 10:28:01;;;;;;;9.88;6.10;;;29.20;71.00;;;;;;5017693;28;20181;-84
2022/07/28 10:30:29;;;;;;;6.93;5.53;;;29.20;71.90;;;;;;5017170;28;20030;-83
2022/07/28 10:32:58;;;;;;;7.32;5.55;;;29.20;70.70;;;;;;5017136;28;20041;-83
2022/07/28 10:35:25;;;;;;;6.53;5.70;;;29.20;71.00;;;;;;5006401;28;20090;-83
2022/07/28 10:38:01;;;;;;;7.63;6.03;;;29.20;71.00;;;;;;5000548;28;20056;-84
2022/07/28 10:40:32;;;;;;;6.05;5.45;;;29.20;71.60;;;;;;5016505;28;20040;-83
2022/07/28 10:42:59;;;;;;;6.60;5.82;;;29.20;70.70;;;;;;5031085;28;20468;-83
2022/07/28 10:45:26;;;;;;;6.13;5.53;;;29.20;69.90;;;;;;5031735;28;20085;-84
2022/07/28 10:47:53;;;;;;;6.30;5.70;;;29.20;69.40;;;;;;5016482;28;20030;-84
2022/07/28 10:50:20;;;;;;;6.55;5.82;;;29.20;69.70;;;;;;5004537;28;20127;-84
2022/07/28 10:52:47;;;;;;;6.90;5.47;;;29.20;69.90;;;;;;5015538;28;20062;-84
2022/07/28 10:55:19;;;;;;;5.97;5.38;;;29.10;69.50;;;;;;5016110;28;20164;-84
2022/07/28 10:58:22;;;;;;;6.57;5.90;;;29.20;69.50;;;;;;5017288;28;20041;-85
2022/07/28 11:00:49;;;;;;;6.45;5.70;;;29.20;68.90;;;;;;5026970;28;20044;-84
2022/07/28 11:03:39;;;;;;;8.02;5.80;;;29.10;68.90;;;;;;5016316;28;20045;-83
2022/07/28 11:06:25;;;;;;;7.32;5.57;;;29.10;68.90;;;;;;5017449;28;20038;-84
2022/07/28 11:08:52;;;;;;;8.25;6.22;;;29.10;68.50;;;;;;5017881;28;20044;-84
2022/07/28 11:11:48;;;;;;;7.00;5.85;;;29.10;68.80;;;;;;5016076;28;20551;-84
2022/07/28 11:14:28;;;;;;;7.25;6.03;;;29.00;68.40;;;;;;5015997;28;20084;-84
2022/07/28 11:17:00;;;;;;;8.40;6.47;;;29.00;68.50;;;;;;5016754;28;20045;-84
2022/07/28 11:19:43;;;;;;;8.20;6.53;;;29.00;68.60;;;;;;5017893;28;20061;-84
2022/07/28 11:22:18;;;;;;;7.65;6.43;;;29.00;68.80;;;;;;5015716;28;20034;-84
2022/07/28 11:25:03;;;;;;;9.75;6.68;;;29.00;69.10;;;;;;5014070;28;20412;-83
2022/07/28 11:27:49;;;;;;;9.15;6.72;;;28.90;68.80;;;;;;5015750;28;20044;-84
2022/07/28 11:30:18;;;;;;;8.32;7.32;;;28.90;69.70;;;;;;5017052;28;20169;-83
2022/07/28 11:32:49;;;;;;;9.05;6.78;;;28.90;69.90;;;;;;5008327;28;20087;-83
2022/07/28 11:35:23;;;;;;;10.38;7.25;;;28.90;70.30;;;;;;5015222;28;20045;-83
2022/07/28 11:38:01;;;;;;;9.55;7.05;;;28.80;70.50;;;;;;5014156;28;20044;-83
2022/07/28 11:40:39;;;;;;;7.03;6.00;;;28.70;71.40;;;;;;5017570;28;20070;-83
2022/07/28 11:43:23;;;;;;;8.60;6.63;;;28.80;71.20;;;;;;5017012;28;20033;-83
2022/07/28 11:46:01;;;;;;;6.85;6.07;;;28.80;70.90;;;;;;5013898;28;20065;-84
2022/07/28 11:48:28;;;;;;;7.43;5.82;;;28.80;69.90;;;;;;5015779;28;20417;-83
2022/07/28 11:51:03;;;;;;;6.80;5.85;;;28.80;69.90;;;;;;5014991;28;20044;-83
2022/07/28 11:53:37;;;;;;;7.05;6.18;;;28.80;69.10;;;;;;5029837;28;20030;-83
2022/07/28 11:56:05;;;;;;;6.20;5.60;;;28.80;69.50;;;;;;5013965;28;20121;-83
2022/07/28 11:58:31;;;;;;;6.13;5.57;;;28.70;69.20;;;;;;5014796;28;20029;-83
2022/07/28 12:01:10;;;;;;;6.53;5.88;;;28.70;68.80;;;;;;5014178;28;20428;-83
2022/07/28 12:03:40;;;;;;;6.93;5.70;;;28.70;68.70;;;;;;5015479;28;20049;-83
2022/07/28 12:06:07;;;;;;;6.30;5.18;;;28.70;68.90;;;;;;5015177;28;20046;-83
2022/07/28 12:08:53;;;;;;;5.97;5.38;;;28.70;68.80;;;;;;4997827;28;20523;-83
2022/07/28 12:11:19;;;;;;;5.45;4.95;;;28.70;68.60;;;;;;4990737;28;20125;-83
2022/07/28 12:13:46;;;;;;;6.75;5.32;;;28.70;68.60;;;;;;5015799;28;20038;-83
2022/07/28 12:16:13;;;;;;;5.38;4.88;;;28.60;68.20;;;;;;5031544;28;20037;-83
2022/07/28 12:18:39;;;;;;;8.88;5.45;;;28.60;68.80;;;;;;5013890;28;20033;-83
2022/07/28 12:21:05;;;;;;;5.38;4.88;;;28.60;68.50;;;;;;5030432;28;20080;-83
2022/07/28 12:23:33;;;;;;;5.25;4.75;;;28.60;68.30;;;;;;5013334;28;20033;-83
2022/07/28 12:26:03;;;;;;;5.78;4.70;;;28.50;68.20;;;;;;5013409;28;20034;-83
2022/07/28 12:28:31;;;;;;;6.93;4.90;;;28.50;68.30;;;;;;5013531;28;20518;-83
2022/07/28 12:31:13;;;;;;;5.47;4.97;;;28.50;68.30;;;;;;5014949;28;20033;-83
2022/07/28 12:33:40;;;;;;;7.85;4.90;;;28.50;68.80;;;;;;5013842;28;20129;-83
2022/07/28 12:36:07;;;;;;;5.78;5.10;;;28.40;68.70;;;;;;5015458;28;20114;-83
2022/07/28 12:38:33;;;;;;;5.50;5.00;;;28.40;68.80;;;;;;5018039;28;20032;-83
2022/07/28 12:40:59;;;;;;;5.30;4.72;;;28.50;69.00;;;;;;4998074;28;20028;-83
2022/07/28 12:43:29;;;;;;;6.15;5.15;;;28.40;69.10;;;;;;4998715;28;20042;-84
2022/07/28 12:45:55;;;;;;;6.97;5.05;;;28.50;69.20;;;;;;4997665;28;20555;-84
2022/07/28 12:48:21;;;;;;;5.80;4.90;;;28.50;69.40;;;;;;5014182;28;20041;-83
2022/07/28 12:50:48;;;;;;;5.80;4.70;;;28.50;70.00;;;;;;4997958;28;20072;-83